createdAt,value
2019-05-18T00:01:38.955Z,10.10
2019-05-18T00:04:07.810Z,10.10
2019-05-18T00:06:36.692Z,10.20
2019-05-18T00:09:07.298Z,10.10
2019-05-18T00:11:36.175Z,10.00
2019-05-18T00:14:05.065Z,10.00
2019-05-18T00:16:33.970Z,9.90
2019-05-18T00:19:03.633Z,9.90
2019-05-18T00:21:32.566Z,9.90
2019-05-18T00:24:01.516Z,9.90
2019-05-18T00:26:30.356Z,9.80
2019-05-18T00:28:59.211Z,9.80
2019-05-18T00:31:28.131Z,9.70
2019-05-18T00:33:56.982Z,9.70
2019-05-18T00:36:25.860Z,9.60
2019-05-18T00:38:54.891Z,9.50
2019-05-18T00:41:23.751Z,9.50
2019-05-18T00:43:52.609Z,9.50
2019-05-18T00:46:21.519Z,9.50
2019-05-18T00:48:50.385Z,9.50
2019-05-18T00:51:19.257Z,9.50
2019-05-18T00:53:48.252Z,9.60
2019-05-18T00:56:17.117Z,9.60
2019-05-18T00:58:45.970Z,9.70
2019-05-18T01:01:14.904Z,9.60
2019-05-18T01:03:43.768Z,9.60
2019-05-18T01:06:12.618Z,9.60
2019-05-18T01:08:41.526Z,9.50
2019-05-18T01:11:10.377Z,9.40
2019-05-18T01:13:39.240Z,9.30
2019-05-18T01:16:08.949Z,9.20
2019-05-18T01:18:37.836Z,9.10
2019-05-18T01:21:06.677Z,9.10
2019-05-18T01:23:35.602Z,9.10
2019-05-18T01:26:04.464Z,9.20
2019-05-18T01:28:33.322Z,9.20
2019-05-18T01:31:02.214Z,9.20
2019-05-18T01:33:31.092Z,9.20
2019-05-18T01:35:59.951Z,9.30
2019-05-18T01:38:28.856Z,9.30
2019-05-18T01:40:57.708Z,9.20
2019-05-18T01:43:26.558Z,9.20
2019-05-18T01:45:55.485Z,9.30
2019-05-18T01:48:24.335Z,9.30
2019-05-18T01:50:53.194Z,9.20
2019-05-18T01:53:22.081Z,9.20
2019-05-18T01:55:50.921Z,9.10
2019-05-18T01:58:19.776Z,9.00
2019-05-18T02:00:48.674Z,8.90
2019-05-18T02:03:17.531Z,8.80
2019-05-18T02:05:46.391Z,8.70
2019-05-18T02:08:15.431Z,8.70
2019-05-18T02:10:44.287Z,8.70
2019-05-18T02:13:13.149Z,8.70
2019-05-18T02:15:42.055Z,8.70
2019-05-18T02:18:10.913Z,8.70
2019-05-18T02:20:39.773Z,8.60
2019-05-18T02:23:08.691Z,8.50
2019-05-18T02:25:37.539Z,8.40
2019-05-18T02:28:06.814Z,8.40
2019-05-18T02:30:35.753Z,8.40
2019-05-18T02:33:04.614Z,8.30
2019-05-18T02:35:33.480Z,8.40
2019-05-18T02:38:16.054Z,8.40
2019-05-18T02:40:46.055Z,8.40
2019-05-18T02:43:15.501Z,8.30
2019-05-18T02:45:44.742Z,8.30
2019-05-18T02:48:13.604Z,8.20
2019-05-18T02:50:42.470Z,8.20
2019-05-18T02:53:11.377Z,8.10
2019-05-18T02:55:40.432Z,8.10
2019-05-18T02:58:09.278Z,8.10
2019-05-18T03:00:38.184Z,8.00
2019-05-18T03:03:07.072Z,8.10
2019-05-18T03:05:35.938Z,8.10
2019-05-18T03:08:04.985Z,8.10
2019-05-18T03:10:33.940Z,8.00
2019-05-18T03:13:02.798Z,8.10
2019-05-18T03:15:31.718Z,8.10
2019-05-18T03:18:00.978Z,8.20
2019-05-18T03:20:29.846Z,8.30
2019-05-18T03:22:59.001Z,8.40
2019-05-18T03:25:28.357Z,8.50
2019-05-18T03:27:57.234Z,8.50
2019-05-18T03:30:45.936Z,8.40
2019-05-18T03:33:10.126Z,8.40
2019-05-18T03:35:39.051Z,8.30
2019-05-18T03:38:07.910Z,8.40
2019-05-18T03:40:36.776Z,8.40
2019-05-18T03:43:05.673Z,8.40
2019-05-18T03:45:34.522Z,8.50
2019-05-18T03:48:03.394Z,8.50
2019-05-18T03:50:32.346Z,8.40
2019-05-18T03:53:01.211Z,8.40
2019-05-18T03:55:30.079Z,8.40
2019-05-18T03:57:59.003Z,8.40
2019-05-18T04:00:27.866Z,8.50
2019-05-18T04:02:56.727Z,8.50
2019-05-18T04:05:25.629Z,8.70
2019-05-18T04:07:54.492Z,8.80
2019-05-18T04:10:25.534Z,8.80
2019-05-18T04:12:54.545Z,9.00
2019-05-18T04:15:23.499Z,9.00
2019-05-18T04:17:52.361Z,9.20
2019-05-18T04:20:21.278Z,9.40
2019-05-18T04:22:50.135Z,9.40
2019-05-18T04:25:19.022Z,9.30
2019-05-18T04:27:47.919Z,9.40
2019-05-18T04:30:17.484Z,9.50
2019-05-18T04:32:46.343Z,9.50
2019-05-18T04:35:15.282Z,9.60
2019-05-18T04:37:44.139Z,10.00
2019-05-18T04:40:13.396Z,10.20
2019-05-18T04:42:42.311Z,10.60
2019-05-18T04:45:11.396Z,10.90
2019-05-18T04:47:40.256Z,10.80
2019-05-18T04:50:09.604Z,10.80
2019-05-18T04:52:38.452Z,10.90
2019-05-18T04:55:07.522Z,11.20
2019-05-18T04:57:36.455Z,11.40
2019-05-18T05:00:08.881Z,11.90
2019-05-18T05:02:37.752Z,12.00
2019-05-18T05:05:09.419Z,12.00
2019-05-18T05:07:38.286Z,12.00
2019-05-18T05:10:07.451Z,12.00
2019-05-18T05:12:36.393Z,12.10
2019-05-18T05:15:05.956Z,12.20
2019-05-18T05:17:34.820Z,12.20
2019-05-18T05:20:18.824Z,12.20
2019-05-18T05:22:35.838Z,12.30
2019-05-18T05:25:04.927Z,12.40
2019-05-18T05:27:34.906Z,12.40
2019-05-18T05:30:05.463Z,12.50
2019-05-18T05:32:34.326Z,12.80
2019-05-18T05:35:03.334Z,13.50
2019-05-18T05:37:32.242Z,15.30
2019-05-18T05:40:01.115Z,17.60
2019-05-18T05:42:30.013Z,19.60
2019-05-18T05:44:58.878Z,20.90
2019-05-18T05:47:27.782Z,22.10
2019-05-18T05:49:56.669Z,23.00
2019-05-18T05:52:25.547Z,24.40
2019-05-18T05:54:54.403Z,25.40
2019-05-18T05:57:23.320Z,25.90
2019-05-18T05:59:52.187Z,25.70
2019-05-18T06:02:21.070Z,25.80
2019-05-18T06:04:49.983Z,25.30
2019-05-18T06:07:18.851Z,25.00
2019-05-18T06:09:47.701Z,25.50
2019-05-18T06:12:16.724Z,25.40
2019-05-18T06:14:45.588Z,24.50
2019-05-18T06:17:14.476Z,23.20
2019-05-18T06:19:43.843Z,22.40
2019-05-18T06:22:12.748Z,21.60
2019-05-18T06:24:41.629Z,20.90
2019-05-18T06:27:10.531Z,20.10
2019-05-18T06:29:39.410Z,19.30
2019-05-18T06:32:08.292Z,18.70
2019-05-18T06:34:37.186Z,18.50
2019-05-18T06:37:07.533Z,18.50
2019-05-18T06:39:36.433Z,18.80
2019-05-18T06:42:05.466Z,19.60
2019-05-18T06:44:35.838Z,20.50
2019-05-18T06:47:04.710Z,20.50
2019-05-18T06:49:33.618Z,19.90
2019-05-18T06:52:02.669Z,19.60
2019-05-18T06:54:33.258Z,19.50
2019-05-18T06:57:03.122Z,19.50
2019-05-18T06:59:32.760Z,19.90
2019-05-18T07:02:03.539Z,20.40
2019-05-18T07:04:32.210Z,20.70
2019-05-18T07:07:01.201Z,21.30
2019-05-18T07:09:30.122Z,21.50
2019-05-18T07:12:00.017Z,21.80
2019-05-18T07:14:28.878Z,22.40
2019-05-18T07:16:57.759Z,22.50
2019-05-18T07:19:26.668Z,22.70
2019-05-18T07:21:55.614Z,23.10
2019-05-18T07:24:24.458Z,23.10
2019-05-18T07:26:53.759Z,23.40
2019-05-18T07:29:22.640Z,25.50
2019-05-18T07:31:51.494Z,28.20
2019-05-18T07:34:20.425Z,28.90
2019-05-18T07:36:49.286Z,29.40
2019-05-18T07:39:18.171Z,29.50
2019-05-18T07:41:47.351Z,30.20
2019-05-18T07:44:16.360Z,29.90
2019-05-18T07:46:45.230Z,30.10
2019-05-18T07:49:14.214Z,30.30
2019-05-18T07:51:43.065Z,30.60
2019-05-18T07:54:11.977Z,30.40
2019-05-18T07:56:40.886Z,30.30
2019-05-18T07:59:09.732Z,30.40
2019-05-18T08:01:38.616Z,30.90
2019-05-18T08:04:07.537Z,31.60
2019-05-18T08:06:36.435Z,31.80
2019-05-18T08:09:07.485Z,32.50
2019-05-18T08:11:36.429Z,32.90
2019-05-18T08:14:05.480Z,33.80
2019-05-18T08:16:34.372Z,34.50
2019-05-18T08:19:03.260Z,34.10
2019-05-18T08:21:32.145Z,34.10
2019-05-18T08:24:00.997Z,34.30
2019-05-18T08:26:29.906Z,33.80
2019-05-18T08:28:58.812Z,33.20
2019-05-18T08:31:27.669Z,32.20
2019-05-18T08:33:56.601Z,31.30
2019-05-18T08:36:25.453Z,30.10
2019-05-18T08:38:54.323Z,30.70
2019-05-18T08:41:23.241Z,32.40
2019-05-18T08:43:52.118Z,33.40
2019-05-18T08:46:20.978Z,34.60
2019-05-18T08:48:49.898Z,34.90
2019-05-18T08:51:18.751Z,34.50
2019-05-18T08:53:47.639Z,34.30
2019-05-18T08:56:16.606Z,33.90
2019-05-18T08:58:45.450Z,33.50
2019-05-18T09:01:14.328Z,34.10
2019-05-18T09:03:43.226Z,35.20
2019-05-18T09:06:14.888Z,35.90
2019-05-18T09:08:43.745Z,35.60
2019-05-18T09:11:12.663Z,34.80
2019-05-18T09:13:41.535Z,34.80
2019-05-18T09:16:10.410Z,34.60
2019-05-18T09:18:39.331Z,34.20
2019-05-18T09:21:08.193Z,34.60
2019-05-18T09:23:37.029Z,34.70
2019-05-18T09:26:05.958Z,34.60
2019-05-18T09:28:34.807Z,34.60
2019-05-18T09:31:05.391Z,34.60
2019-05-18T09:33:34.300Z,34.90
2019-05-18T09:36:03.157Z,36.00
2019-05-18T09:38:33.400Z,37.30
2019-05-18T09:41:02.743Z,37.70
2019-05-18T09:43:31.614Z,37.90
2019-05-18T09:46:00.465Z,37.70
2019-05-18T09:48:29.422Z,37.30
2019-05-18T09:50:58.273Z,36.80
2019-05-18T09:53:29.943Z,36.00
2019-05-18T09:55:57.656Z,36.20
2019-05-18T09:58:26.518Z,36.30
2019-05-18T10:00:55.395Z,36.00
2019-05-18T10:03:24.978Z,35.20
2019-05-18T10:05:53.835Z,35.20
2019-05-18T10:08:22.709Z,35.00
2019-05-18T10:10:51.804Z,35.30
2019-05-18T10:13:20.650Z,35.30
2019-05-18T10:15:49.521Z,36.00
2019-05-18T10:18:21.652Z,36.20
2019-05-18T10:20:48.945Z,35.90
2019-05-18T10:23:17.819Z,34.80
2019-05-18T10:25:46.740Z,34.00
2019-05-18T10:28:15.589Z,32.10
2019-05-18T10:30:44.437Z,30.60
2019-05-18T10:33:13.364Z,29.30
2019-05-18T10:35:42.240Z,28.50
2019-05-18T10:38:11.083Z,27.80
2019-05-18T10:40:39.983Z,27.20
2019-05-18T10:43:08.859Z,26.90
2019-05-18T10:45:37.716Z,26.60
2019-05-18T10:48:06.862Z,26.70
2019-05-18T10:50:35.721Z,26.30
2019-05-18T10:53:04.583Z,26.10
2019-05-18T10:55:34.436Z,26.00
2019-05-18T10:58:03.492Z,26.00
2019-05-18T11:00:32.343Z,26.10
2019-05-18T11:03:01.472Z,26.20
2019-05-18T11:05:30.336Z,26.50
2019-05-18T11:07:59.193Z,26.20
2019-05-18T11:10:28.123Z,26.40
2019-05-18T11:12:56.967Z,26.40
2019-05-18T11:15:25.914Z,26.30
2019-05-18T11:17:54.830Z,26.40
2019-05-18T11:20:24.217Z,26.10
2019-05-18T11:22:53.052Z,26.10
2019-05-18T11:25:22.017Z,26.20
2019-05-18T11:27:50.930Z,26.50
2019-05-18T11:30:20.975Z,26.70
2019-05-18T11:32:49.892Z,26.60
2019-05-18T11:35:19.130Z,26.70
2019-05-18T11:37:48.060Z,26.80
2019-05-18T11:40:18.266Z,27.00
2019-05-18T11:42:47.130Z,26.90
2019-05-18T11:45:17.795Z,26.70
2019-05-18T11:47:46.685Z,26.50
2019-05-18T11:50:16.372Z,26.60
2019-05-18T11:53:04.932Z,26.80
2019-05-18T11:55:33.786Z,26.70
2019-05-18T11:58:02.771Z,26.80
2019-05-18T12:00:31.680Z,26.70
2019-05-18T12:03:00.572Z,26.60
2019-05-18T12:05:29.418Z,26.70
2019-05-18T12:07:58.318Z,26.20
2019-05-18T12:10:27.174Z,25.90
2019-05-18T12:12:56.270Z,26.30
2019-05-18T12:15:25.401Z,26.70
2019-05-18T12:17:54.258Z,26.80
2019-05-18T12:20:24.918Z,26.50
2019-05-18T12:22:53.829Z,25.90
2019-05-18T12:25:22.703Z,25.70
2019-05-18T12:27:51.578Z,25.60
2019-05-18T12:30:21.111Z,25.60
2019-05-18T12:32:50.006Z,25.70
2019-05-18T12:35:18.863Z,25.80
2019-05-18T12:37:48.196Z,25.50
2019-05-18T12:40:19.283Z,25.40
2019-05-18T12:42:48.295Z,25.30
2019-05-18T12:45:18.078Z,25.30
2019-05-18T12:47:46.945Z,25.00
2019-05-18T12:50:16.753Z,24.90
2019-05-18T12:52:45.639Z,24.70
2019-05-18T12:55:16.224Z,24.90
2019-05-18T12:57:45.093Z,25.20
2019-05-18T13:00:16.124Z,25.60
2019-05-18T13:02:44.974Z,25.60
2019-05-18T13:05:14.247Z,25.40
2019-05-18T13:07:43.171Z,25.50
2019-05-18T13:10:12.941Z,25.30
2019-05-18T13:12:41.794Z,25.10
2019-05-18T13:15:12.034Z,24.80
2019-05-18T13:17:40.898Z,24.70
2019-05-18T13:20:11.372Z,24.90
2019-05-18T13:22:40.308Z,24.80
2019-05-18T13:25:10.490Z,24.60
2019-05-18T13:27:40.229Z,24.60
2019-05-18T13:30:11.196Z,24.50
2019-05-18T13:32:40.363Z,24.40
2019-05-18T13:35:09.756Z,24.40
2019-05-18T13:37:38.645Z,24.40
2019-05-18T13:40:08.133Z,24.40
2019-05-18T13:42:37.412Z,24.50
2019-05-18T13:45:08.733Z,24.70
2019-05-18T13:47:37.601Z,24.80
2019-05-18T13:50:08.479Z,24.70
2019-05-18T13:52:37.415Z,24.40
2019-05-18T13:55:06.778Z,24.30
2019-05-18T13:57:35.951Z,24.40
2019-05-18T14:00:07.428Z,24.50
2019-05-18T14:02:36.324Z,24.50
2019-05-18T14:05:06.552Z,24.50
2019-05-18T14:07:35.479Z,24.20
2019-05-18T14:10:08.573Z,24.10
2019-05-18T14:12:37.436Z,24.10
2019-05-18T14:15:07.034Z,24.10
2019-05-18T14:17:35.906Z,24.00
2019-05-18T14:20:06.100Z,24.00
2019-05-18T14:22:36.010Z,24.10
2019-05-18T14:25:18.598Z,24.20
2019-05-18T14:27:39.311Z,24.10
2019-05-18T14:30:08.741Z,24.10
2019-05-18T14:32:37.588Z,24.10
2019-05-18T14:35:09.496Z,24.20
2019-05-18T14:37:38.427Z,24.20
2019-05-18T14:40:08.009Z,24.20
2019-05-18T14:42:36.866Z,24.40
2019-05-18T14:45:07.394Z,24.30
2019-05-18T14:47:36.269Z,24.30
2019-05-18T14:50:07.243Z,24.30
2019-05-18T14:52:36.261Z,24.20
2019-05-18T14:55:06.725Z,24.00
2019-05-18T14:57:35.577Z,24.00
2019-05-18T15:00:07.950Z,24.00
2019-05-18T15:02:36.855Z,24.10
2019-05-18T15:05:08.813Z,24.00
2019-05-18T15:07:37.729Z,23.70
2019-05-18T15:10:08.326Z,23.50
2019-05-18T15:12:37.182Z,23.40
2019-05-18T15:15:08.232Z,23.30
2019-05-18T15:17:37.188Z,23.20
2019-05-18T15:20:10.333Z,23.20
2019-05-18T15:22:39.240Z,23.20
2019-05-18T15:25:08.526Z,23.30
2019-05-18T15:27:37.416Z,23.30
2019-05-18T15:30:08.573Z,23.40
2019-05-18T15:32:37.431Z,23.40
2019-05-18T15:35:08.171Z,23.40
2019-05-18T15:37:37.605Z,23.40
2019-05-18T15:40:08.751Z,23.20
2019-05-18T15:42:37.640Z,23.10
2019-05-18T15:45:10.369Z,23.00
2019-05-18T15:47:39.955Z,23.00
2019-05-18T15:50:09.258Z,22.90
2019-05-18T15:52:38.326Z,22.90
2019-05-18T15:55:08.293Z,22.90
2019-05-18T15:57:37.363Z,22.90
2019-05-18T16:00:08.309Z,22.80
2019-05-18T16:02:37.181Z,22.80
2019-05-18T16:05:06.738Z,22.70
2019-05-18T16:07:35.667Z,22.50
2019-05-18T16:10:05.534Z,22.40
2019-05-18T16:12:34.426Z,22.40
2019-05-18T16:15:04.479Z,22.30
2019-05-18T16:17:39.459Z,22.20
2019-05-18T16:20:05.253Z,22.10
2019-05-18T16:22:34.153Z,22.00
2019-05-18T16:25:03.029Z,21.70
2019-05-18T16:27:31.952Z,21.40
2019-05-18T16:30:00.848Z,20.90
2019-05-18T16:32:29.724Z,20.30
2019-05-18T16:34:58.976Z,19.70
2019-05-18T16:37:27.872Z,19.20
2019-05-18T16:39:56.721Z,18.80
2019-05-18T16:42:25.576Z,18.40
2019-05-18T16:44:54.497Z,18.10
2019-05-18T16:47:23.363Z,17.90
2019-05-18T16:49:52.237Z,17.70
2019-05-18T16:52:21.171Z,17.60
2019-05-18T16:54:50.061Z,17.50
2019-05-18T16:57:18.940Z,17.40
2019-05-18T16:59:47.841Z,17.40
2019-05-18T17:02:30.629Z,17.30
2019-05-18T17:04:47.239Z,17.20
2019-05-18T17:07:16.150Z,17.10
2019-05-18T17:09:45.029Z,17.10
2019-05-18T17:12:13.909Z,17.10
2019-05-18T17:14:42.861Z,17.10
2019-05-18T17:17:11.733Z,17.00
2019-05-18T17:19:40.607Z,17.10
2019-05-18T17:22:09.533Z,17.10
2019-05-18T17:24:38.378Z,17.10
2019-05-18T17:27:07.234Z,17.10
2019-05-18T17:29:36.169Z,17.10
2019-05-18T17:32:05.035Z,17.10
2019-05-18T17:34:33.900Z,17.10
2019-05-18T17:37:02.837Z,17.20
2019-05-18T17:39:31.684Z,17.30
2019-05-18T17:42:00.560Z,17.30
2019-05-18T17:44:29.505Z,17.40
2019-05-18T17:46:58.371Z,17.30
2019-05-18T17:49:27.269Z,17.30
2019-05-18T17:51:56.188Z,17.30
2019-05-18T17:54:25.049Z,17.20
2019-05-18T17:57:07.557Z,17.20
2019-05-18T17:59:24.549Z,17.20
2019-05-18T18:02:12.356Z,17.20
2019-05-18T18:04:41.429Z,17.30
2019-05-18T18:07:10.332Z,17.20
2019-05-18T18:09:39.209Z,17.20
2019-05-18T18:12:08.131Z,17.30
2019-05-18T18:14:37.067Z,17.30
2019-05-18T18:17:05.950Z,17.20
2019-05-18T18:19:34.883Z,17.20
2019-05-18T18:22:03.754Z,17.10
2019-05-18T18:24:32.643Z,17.10
2019-05-18T18:27:01.552Z,17.00
2019-05-18T18:29:30.393Z,17.00
2019-05-18T18:31:59.254Z,16.90
2019-05-18T18:34:28.195Z,16.90
2019-05-18T18:36:57.060Z,17.00
2019-05-18T18:39:25.921Z,16.90
2019-05-18T18:41:54.862Z,16.80
2019-05-18T18:44:23.739Z,16.80
2019-05-18T18:46:52.619Z,16.80
2019-05-18T18:49:21.579Z,16.70
2019-05-18T18:51:50.429Z,16.60
2019-05-18T18:54:19.292Z,16.50
2019-05-18T18:56:48.228Z,16.40
2019-05-18T18:59:17.101Z,16.40
2019-05-18T19:01:45.959Z,16.30
2019-05-18T19:04:14.893Z,16.30
2019-05-18T19:06:43.774Z,16.40
2019-05-18T19:09:12.649Z,16.40
2019-05-18T19:11:41.556Z,16.40
2019-05-18T19:14:10.426Z,16.40
2019-05-18T19:16:39.269Z,16.40
2019-05-18T19:19:08.181Z,16.40
2019-05-18T19:21:37.033Z,16.30
2019-05-18T19:24:05.939Z,16.30
2019-05-18T19:26:34.886Z,16.30
2019-05-18T19:29:03.742Z,16.30
2019-05-18T19:31:32.608Z,16.30
2019-05-18T19:34:01.521Z,16.30
2019-05-18T19:36:30.391Z,16.30
2019-05-18T19:38:59.271Z,16.30
2019-05-18T19:41:28.231Z,16.30
2019-05-18T19:43:57.149Z,16.40
2019-05-18T19:46:26.097Z,16.30
2019-05-18T19:48:55.052Z,16.20
2019-05-18T19:51:23.906Z,16.10
2019-05-18T19:53:52.745Z,16.00
2019-05-18T19:56:21.706Z,16.00
2019-05-18T19:58:50.579Z,15.90
2019-05-18T20:01:20.527Z,16.00
2019-05-18T20:03:49.432Z,16.00
2019-05-18T20:06:18.298Z,16.00
2019-05-18T20:08:47.153Z,16.10
2019-05-18T20:11:16.105Z,16.00
2019-05-18T20:13:45.003Z,16.00
2019-05-18T20:16:13.849Z,16.00
2019-05-18T20:18:42.803Z,16.00
2019-05-18T20:21:11.742Z,15.90
2019-05-18T20:23:40.568Z,15.80
2019-05-18T20:26:09.590Z,15.70
2019-05-18T20:28:38.455Z,15.60
2019-05-18T20:31:07.348Z,15.60
2019-05-18T20:33:36.285Z,15.60
2019-05-18T20:36:05.193Z,15.60
2019-05-18T20:38:34.099Z,15.70
2019-05-18T20:41:03.143Z,15.70
2019-05-18T20:43:32.080Z,15.70
2019-05-18T20:46:01.057Z,15.60
2019-05-18T20:48:30.067Z,15.60
2019-05-18T20:50:58.988Z,15.70
2019-05-18T20:53:27.945Z,15.60
2019-05-18T20:55:56.911Z,15.60
2019-05-18T20:58:38.807Z,15.60
2019-05-18T21:00:56.411Z,15.50
2019-05-18T21:03:25.345Z,15.50
2019-05-18T21:05:54.251Z,15.60
2019-05-18T21:08:28.915Z,15.60
2019-05-18T21:10:57.841Z,15.60
2019-05-18T21:13:29.158Z,15.60
2019-05-18T21:15:58.031Z,15.70
2019-05-18T21:18:26.986Z,15.70
2019-05-18T21:20:55.900Z,15.70
2019-05-18T21:23:24.809Z,15.70
2019-05-18T21:25:53.734Z,15.70
2019-05-18T21:28:22.606Z,15.60
2019-05-18T21:30:51.467Z,15.60
2019-05-18T21:33:20.416Z,15.60
2019-05-18T21:35:49.312Z,15.50
2019-05-18T21:38:18.177Z,15.60
2019-05-18T21:40:47.155Z,15.60
2019-05-18T21:43:16.040Z,15.50
2019-05-18T21:45:45.123Z,15.50
2019-05-18T21:48:14.050Z,15.30
2019-05-18T21:50:42.898Z,15.30
2019-05-18T21:53:11.765Z,15.20
2019-05-18T21:55:40.697Z,15.20
2019-05-18T21:58:12.176Z,15.30
2019-05-18T22:00:40.179Z,15.30
2019-05-18T22:03:09.104Z,15.40
2019-05-18T22:05:38.654Z,15.40
2019-05-18T22:08:07.536Z,15.10
2019-05-18T22:10:36.461Z,15.00
2019-05-18T22:13:05.326Z,14.90
2019-05-18T22:15:34.200Z,14.90
2019-05-18T22:18:03.120Z,15.00
2019-05-18T22:20:34.304Z,15.00
2019-05-18T22:23:03.555Z,15.10
2019-05-18T22:25:34.364Z,15.10
2019-05-18T22:28:03.215Z,15.00
2019-05-18T22:30:32.083Z,15.00
2019-05-18T22:33:01.016Z,15.10
2019-05-18T22:35:29.887Z,15.10
2019-05-18T22:37:58.754Z,15.10
2019-05-18T22:40:27.692Z,15.10
2019-05-18T22:42:56.557Z,15.10
2019-05-18T22:45:25.424Z,15.10
2019-05-18T22:47:54.363Z,15.00
2019-05-18T22:50:23.439Z,15.00
2019-05-18T22:52:52.324Z,14.90
2019-05-18T22:55:21.235Z,14.80
2019-05-18T22:57:50.091Z,14.70
2019-05-18T23:00:22.153Z,14.70
2019-05-18T23:02:51.493Z,14.70
2019-05-18T23:05:20.368Z,14.80
2019-05-18T23:07:49.245Z,14.80
2019-05-18T23:10:18.340Z,14.70
2019-05-18T23:12:47.213Z,14.60
2019-05-18T23:15:16.103Z,14.60
2019-05-18T23:17:45.051Z,14.60
2019-05-18T23:20:13.902Z,14.60
2019-05-18T23:22:42.757Z,14.50
2019-05-18T23:25:11.897Z,14.40
2019-05-18T23:27:40.778Z,14.40
2019-05-18T23:30:09.747Z,14.20
2019-05-18T23:32:38.732Z,14.10
2019-05-18T23:35:07.693Z,14.10
2019-05-18T23:37:36.546Z,14.20
2019-05-18T23:40:06.561Z,14.20
2019-05-18T23:42:35.409Z,14.20
2019-05-18T23:45:06.060Z,14.10
2019-05-18T23:47:35.023Z,14.20
2019-05-18T23:50:04.108Z,14.10
2019-05-18T23:52:32.962Z,14.10
2019-05-18T23:55:02.735Z,14.10
2019-05-18T23:57:31.603Z,14.20
